createdAt,value
2023-05-25T00:01:05.300Z,17.20
2023-05-25T00:03:32.785Z,17.20
2023-05-25T00:06:03.182Z,17.20
2023-05-25T00:08:30.292Z,17.20
2023-05-25T00:10:57.365Z,17.20
2023-05-25T00:13:24.296Z,17.20
2023-05-25T00:15:51.408Z,17.20
2023-05-25T00:18:18.730Z,17.20
2023-05-25T00:20:47.538Z,17.20
2023-05-25T00:23:15.228Z,17.30
2023-05-25T00:25:42.564Z,17.30
2023-05-25T00:28:11.621Z,17.30
2023-05-25T00:30:38.738Z,17.30
2023-05-25T00:33:05.884Z,17.30
2023-05-25T00:35:32.820Z,17.30
2023-05-25T00:37:59.771Z,17.30
2023-05-25T00:40:26.726Z,17.40
2023-05-25T00:42:53.697Z,17.40
2023-05-25T00:45:20.789Z,17.40
2023-05-25T00:47:52.021Z,17.40
2023-05-25T00:50:37.625Z,17.40
2023-05-25T00:53:06.362Z,17.40
2023-05-25T00:55:38.281Z,17.50
2023-05-25T00:58:06.936Z,17.40
2023-05-25T01:00:37.461Z,17.50
2023-05-25T01:03:11.832Z,17.50
2023-05-25T01:05:42.688Z,17.40
2023-05-25T01:08:11.738Z,17.40
2023-05-25T01:10:42.108Z,17.40
2023-05-25T01:13:10.548Z,17.50
2023-05-25T01:15:39.346Z,17.40
2023-05-25T01:18:09.523Z,17.40
2023-05-25T01:20:36.586Z,17.40
2023-05-25T01:23:17.653Z,17.50
2023-05-25T01:25:50.934Z,17.40
2023-05-25T01:28:39.170Z,17.40
2023-05-25T01:31:08.082Z,17.40
2023-05-25T01:33:36.568Z,17.40
2023-05-25T01:36:04.404Z,17.40
2023-05-25T01:38:31.550Z,17.30
2023-05-25T01:40:58.527Z,17.30
2023-05-25T01:43:25.626Z,17.30
2023-05-25T01:45:58.147Z,17.30
2023-05-25T01:48:43.811Z,17.30
2023-05-25T01:51:28.290Z,17.30
2023-05-25T01:54:01.597Z,17.30
2023-05-25T01:56:30.935Z,17.30
2023-05-25T01:59:01.529Z,17.20
2023-05-25T02:01:29.465Z,17.20
2023-05-25T02:03:57.562Z,17.30
2023-05-25T02:06:24.584Z,17.20
2023-05-25T02:08:51.534Z,17.20
2023-05-25T02:11:18.649Z,17.20
2023-05-25T02:13:45.701Z,17.20
2023-05-25T02:16:12.678Z,17.20
2023-05-25T02:18:39.671Z,17.20
2023-05-25T02:21:06.625Z,17.20
2023-05-25T02:23:33.558Z,17.20
2023-05-25T02:26:00.543Z,17.20
2023-05-25T02:28:27.535Z,17.20
2023-05-25T02:30:54.714Z,17.20
2023-05-25T02:33:21.698Z,17.20
2023-05-25T02:35:49.970Z,17.20
2023-05-25T02:38:16.979Z,17.20
2023-05-25T02:40:45.404Z,17.10
2023-05-25T02:43:12.385Z,17.20
2023-05-25T02:45:39.340Z,17.20
2023-05-25T02:48:06.381Z,17.10
2023-05-25T02:50:33.434Z,17.10
2023-05-25T02:53:00.355Z,17.10
2023-05-25T02:55:27.317Z,17.00
2023-05-25T02:57:54.342Z,17.00
2023-05-25T03:00:21.759Z,17.00
2023-05-25T03:02:49.093Z,17.00
2023-05-25T03:05:16.719Z,17.00
2023-05-25T03:07:43.788Z,17.00
2023-05-25T03:10:11.876Z,17.00
2023-05-25T03:12:38.811Z,17.00
2023-05-25T03:15:07.956Z,17.00
2023-05-25T03:17:34.958Z,17.00
2023-05-25T03:20:01.967Z,16.90
2023-05-25T03:22:29.113Z,16.90
2023-05-25T03:24:56.173Z,16.90
2023-05-25T03:27:23.198Z,16.90
2023-05-25T03:29:50.875Z,16.90
2023-05-25T03:32:17.980Z,16.90
2023-05-25T03:34:45.158Z,16.90
2023-05-25T03:37:12.154Z,16.90
2023-05-25T03:39:39.047Z,16.90
2023-05-25T03:42:06.514Z,16.80
2023-05-25T03:44:33.705Z,16.80
2023-05-25T03:47:00.699Z,16.80
2023-05-25T03:49:28.126Z,16.80
2023-05-25T03:51:55.170Z,16.80
2023-05-25T03:54:22.155Z,16.80
2023-05-25T03:56:49.117Z,16.80
2023-05-25T03:59:16.110Z,16.80
2023-05-25T04:01:43.051Z,16.80
2023-05-25T04:04:10.293Z,16.80
2023-05-25T04:06:37.415Z,16.80
2023-05-25T04:09:05.028Z,16.80
2023-05-25T04:11:32.030Z,16.80
2023-05-25T04:13:59.994Z,16.80
2023-05-25T04:16:27.194Z,16.80
2023-05-25T04:18:54.204Z,16.80
2023-05-25T04:21:21.447Z,16.80
2023-05-25T04:23:48.402Z,16.80
2023-05-25T04:26:18.224Z,16.80
2023-05-25T04:28:46.100Z,16.80
2023-05-25T04:31:13.603Z,16.90
2023-05-25T04:33:40.764Z,16.80
2023-05-25T04:36:11.396Z,16.80
2023-05-25T04:38:38.487Z,16.90
2023-05-25T04:41:05.918Z,16.80
2023-05-25T04:43:33.860Z,16.80
2023-05-25T04:46:01.082Z,16.80
2023-05-25T04:48:34.242Z,16.80
2023-05-25T04:51:04.599Z,16.80
2023-05-25T04:53:32.347Z,16.80
2023-05-25T04:55:59.679Z,16.80
2023-05-25T04:58:26.616Z,16.80
2023-05-25T05:00:53.739Z,16.80
2023-05-25T05:03:21.429Z,16.80
2023-05-25T05:05:48.504Z,16.80
2023-05-25T05:08:15.508Z,16.80
2023-05-25T05:10:42.656Z,16.80
2023-05-25T05:13:11.249Z,16.80
2023-05-25T05:15:38.196Z,16.80
2023-05-25T05:18:06.321Z,16.80
2023-05-25T05:20:33.392Z,16.80
2023-05-25T05:23:00.418Z,16.70
2023-05-25T05:25:27.447Z,16.80
2023-05-25T05:27:54.377Z,16.80
2023-05-25T05:30:22.323Z,16.80
2023-05-25T05:32:49.334Z,16.80
2023-05-25T05:35:16.463Z,16.90
2023-05-25T05:37:44.450Z,16.80
2023-05-25T05:40:11.926Z,16.90
2023-05-25T05:42:38.944Z,17.00
2023-05-25T05:45:06.516Z,17.00
2023-05-25T05:47:33.531Z,17.00
2023-05-25T05:50:00.613Z,17.10
2023-05-25T05:52:27.596Z,17.20
2023-05-25T05:54:54.936Z,17.20
2023-05-25T05:57:22.031Z,17.30
2023-05-25T05:59:49.028Z,17.40
2023-05-25T06:02:16.063Z,17.50
2023-05-25T06:04:43.074Z,17.60
2023-05-25T06:07:10.045Z,17.60
2023-05-25T06:09:37.199Z,17.70
2023-05-25T06:12:04.549Z,17.80
2023-05-25T06:14:31.472Z,18.00
2023-05-25T06:16:59.095Z,18.00
2023-05-25T06:19:26.164Z,18.10
2023-05-25T06:21:53.155Z,18.20
2023-05-25T06:24:20.109Z,18.30
2023-05-25T06:26:47.051Z,18.40
2023-05-25T06:29:16.874Z,18.50
2023-05-25T06:31:44.382Z,18.50
2023-05-25T06:34:11.346Z,18.50
2023-05-25T06:36:38.355Z,18.50
2023-05-25T06:39:05.367Z,18.40
2023-05-25T06:41:32.733Z,18.40
2023-05-25T06:43:59.723Z,18.30
2023-05-25T06:46:27.055Z,18.20
2023-05-25T06:48:54.073Z,18.10
2023-05-25T06:51:21.597Z,18.10
2023-05-25T06:53:48.530Z,18.10
2023-05-25T06:56:16.198Z,18.20
2023-05-25T06:58:43.164Z,18.20
2023-05-25T07:01:10.148Z,18.30
2023-05-25T07:03:38.671Z,18.30
2023-05-25T07:06:06.672Z,18.30
2023-05-25T07:08:33.899Z,18.50
2023-05-25T07:11:01.126Z,18.40
2023-05-25T07:13:28.142Z,18.40
2023-05-25T07:15:55.172Z,18.50
2023-05-25T07:18:22.182Z,18.50
2023-05-25T07:20:49.174Z,18.60
2023-05-25T07:23:16.259Z,18.70
2023-05-25T07:25:43.523Z,18.80
2023-05-25T07:28:10.878Z,18.80
2023-05-25T07:30:37.891Z,18.90
2023-05-25T07:33:04.912Z,18.90
2023-05-25T07:35:31.880Z,18.90
2023-05-25T07:37:59.577Z,18.90
2023-05-25T07:40:27.098Z,18.90
2023-05-25T07:42:54.407Z,19.10
2023-05-25T07:45:22.049Z,19.00
2023-05-25T07:47:49.199Z,19.00
2023-05-25T07:50:16.335Z,19.00
2023-05-25T07:52:43.420Z,19.00
2023-05-25T07:55:10.931Z,19.10
2023-05-25T07:57:37.935Z,19.10
2023-05-25T08:00:09.079Z,19.10
2023-05-25T08:02:36.224Z,19.10
2023-05-25T08:05:06.057Z,19.20
2023-05-25T08:07:34.021Z,19.20
2023-05-25T08:10:01.563Z,19.40
2023-05-25T08:12:45.864Z,19.50
2023-05-25T08:15:16.683Z,19.60
2023-05-25T08:17:44.034Z,19.70
2023-05-25T08:20:11.794Z,19.90
2023-05-25T08:22:40.027Z,20.00
2023-05-25T08:25:08.225Z,20.10
2023-05-25T08:27:36.423Z,20.30
2023-05-25T08:30:06.031Z,20.40
2023-05-25T08:32:33.265Z,20.60
2023-05-25T08:35:01.719Z,20.70
2023-05-25T08:37:29.455Z,20.70
2023-05-25T08:39:56.887Z,20.50
2023-05-25T08:42:24.005Z,20.40
2023-05-25T08:44:51.156Z,20.20
2023-05-25T08:47:20.560Z,20.00
2023-05-25T08:49:50.118Z,19.90
2023-05-25T08:52:22.891Z,20.00
2023-05-25T08:54:53.552Z,20.20
2023-05-25T08:57:59.263Z,20.30
2023-05-25T09:00:31.891Z,20.30
2023-05-25T09:03:10.463Z,20.50
2023-05-25T09:05:38.801Z,20.70
2023-05-25T09:08:06.848Z,20.90
2023-05-25T09:10:35.557Z,21.10
2023-05-25T09:13:13.187Z,21.30
2023-05-25T09:15:47.501Z,21.50
2023-05-25T09:18:14.692Z,21.60
2023-05-25T09:20:43.598Z,21.90
2023-05-25T09:23:14.561Z,22.00
2023-05-25T09:25:41.972Z,22.00
2023-05-25T09:28:25.711Z,22.10
2023-05-25T09:30:54.586Z,22.00
2023-05-25T09:33:21.723Z,22.00
2023-05-25T09:35:49.656Z,22.20
2023-05-25T09:38:17.496Z,22.30
2023-05-25T09:40:45.446Z,22.30
2023-05-25T09:43:19.691Z,22.50
2023-05-25T09:45:53.698Z,22.40
2023-05-25T09:48:23.130Z,22.40
2023-05-25T09:50:51.262Z,22.70
2023-05-25T09:53:18.784Z,22.40
2023-05-25T09:55:53.614Z,22.20
2023-05-25T09:58:24.922Z,22.30
2023-05-25T10:00:55.385Z,21.90
2023-05-25T10:03:22.775Z,21.90
2023-05-25T10:05:50.268Z,22.10
2023-05-25T10:08:20.088Z,22.30
2023-05-25T10:10:50.056Z,22.40
2023-05-25T10:13:22.379Z,22.40
2023-05-25T10:15:53.481Z,22.50
2023-05-25T10:18:26.291Z,22.60
2023-05-25T10:21:08.229Z,22.70
2023-05-25T10:23:43.983Z,23.10
2023-05-25T10:26:18.443Z,23.50
2023-05-25T10:28:47.899Z,23.40
2023-05-25T10:31:16.611Z,23.40
2023-05-25T10:33:49.112Z,23.20
2023-05-25T10:36:20.630Z,23.20
2023-05-25T10:38:51.877Z,23.50
2023-05-25T10:41:20.916Z,23.70
2023-05-25T10:43:48.372Z,24.00
2023-05-25T10:46:17.270Z,23.70
2023-05-25T10:48:49.385Z,23.60
2023-05-25T10:51:19.853Z,23.20
2023-05-25T10:53:58.380Z,22.90
2023-05-25T10:56:25.477Z,22.60
2023-05-25T10:58:53.697Z,22.40
2023-05-25T11:01:20.970Z,22.10
2023-05-25T11:04:13.659Z,21.80
2023-05-25T11:06:40.785Z,21.90
2023-05-25T11:09:23.162Z,22.30
2023-05-25T11:11:50.936Z,22.50
2023-05-25T11:14:30.789Z,23.00
2023-05-25T11:17:15.276Z,23.30
2023-05-25T11:19:54.104Z,23.30
2023-05-25T11:22:21.777Z,23.30
2023-05-25T11:24:49.241Z,23.30
2023-05-25T11:27:16.301Z,23.70
2023-05-25T11:29:43.883Z,23.90
2023-05-25T11:32:14.841Z,23.90
2023-05-25T11:34:46.531Z,23.50
2023-05-25T11:37:17.190Z,23.10
2023-05-25T11:39:52.066Z,22.80
2023-05-25T11:42:23.874Z,22.80
2023-05-25T11:44:51.384Z,23.00
2023-05-25T11:47:23.219Z,23.30
2023-05-25T11:49:50.662Z,23.50
2023-05-25T11:52:19.011Z,23.90
2023-05-25T11:54:46.628Z,23.80
2023-05-25T11:57:24.444Z,23.90
2023-05-25T11:59:53.551Z,23.90
2023-05-25T12:02:21.687Z,23.90
2023-05-25T12:04:59.341Z,24.00
2023-05-25T12:07:27.121Z,24.30
2023-05-25T12:10:16.601Z,24.50
2023-05-25T12:12:46.442Z,24.50
2023-05-25T12:15:21.178Z,24.60
2023-05-25T12:17:50.062Z,24.50
2023-05-25T12:20:18.292Z,24.20
2023-05-25T12:22:46.589Z,24.20
2023-05-25T12:25:14.767Z,24.40
2023-05-25T12:27:42.694Z,24.40
2023-05-25T12:30:10.966Z,24.40
2023-05-25T12:33:03.794Z,24.10
2023-05-25T12:35:45.408Z,23.70
2023-05-25T12:38:18.247Z,23.70
2023-05-25T12:40:45.558Z,23.40
2023-05-25T12:43:16.854Z,23.10
2023-05-25T12:45:44.395Z,23.00
2023-05-25T12:48:12.018Z,23.00
2023-05-25T12:50:39.221Z,23.10
2023-05-25T12:53:06.427Z,23.30
2023-05-25T12:55:36.279Z,23.20
2023-05-25T12:58:06.459Z,23.10
2023-05-25T13:00:41.076Z,23.00
2023-05-25T13:03:08.484Z,22.80
2023-05-25T13:05:37.017Z,22.30
2023-05-25T13:08:05.671Z,22.10
2023-05-25T13:10:33.302Z,21.80
2023-05-25T13:13:00.931Z,21.60
2023-05-25T13:15:28.557Z,21.30
2023-05-25T13:17:58.397Z,21.00
2023-05-25T13:20:27.485Z,20.70
2023-05-25T13:22:57.743Z,20.60
2023-05-25T13:25:27.620Z,20.40
2023-05-25T13:27:57.642Z,20.40
2023-05-25T13:30:24.786Z,20.20
2023-05-25T13:32:52.761Z,20.20
2023-05-25T13:35:37.725Z,20.20
2023-05-25T13:38:05.300Z,19.40
2023-05-25T13:40:32.321Z,19.10
2023-05-25T13:42:59.265Z,18.90
2023-05-25T13:45:26.267Z,18.90
2023-05-25T13:47:53.338Z,18.70
2023-05-25T13:50:20.319Z,18.20
2023-05-25T13:52:47.285Z,18.30
2023-05-25T13:55:14.288Z,18.10
2023-05-25T13:57:41.439Z,18.50
2023-05-25T14:00:09.511Z,18.50
2023-05-25T14:02:37.248Z,18.10
2023-05-25T14:05:04.928Z,18.00
2023-05-25T14:07:32.749Z,17.60
2023-05-25T14:10:00.282Z,17.60
2023-05-25T14:12:28.672Z,17.60
2023-05-25T14:14:55.755Z,17.30
2023-05-25T14:17:23.932Z,17.30
2023-05-25T14:19:51.295Z,17.30
2023-05-25T14:22:18.975Z,17.40
2023-05-25T14:24:46.298Z,17.40
2023-05-25T14:27:13.365Z,17.30
2023-05-25T14:29:40.294Z,17.20
2023-05-25T14:32:07.317Z,17.30
2023-05-25T14:34:34.262Z,17.20
2023-05-25T14:37:01.220Z,17.10
2023-05-25T14:39:28.319Z,17.10
2023-05-25T14:41:56.189Z,17.10
2023-05-25T14:44:23.147Z,17.30
2023-05-25T14:46:50.136Z,17.20
2023-05-25T14:49:17.404Z,17.40
2023-05-25T14:51:44.322Z,17.60
2023-05-25T14:54:13.744Z,17.50
2023-05-25T14:56:40.814Z,17.30
2023-05-25T14:59:08.019Z,17.20
2023-05-25T15:01:35.449Z,17.20
2023-05-25T15:04:02.689Z,17.00
2023-05-25T15:06:29.821Z,17.10
2023-05-25T15:08:56.847Z,16.80
2023-05-25T15:11:23.999Z,16.60
2023-05-25T15:13:50.960Z,16.50
2023-05-25T15:16:17.913Z,16.30
2023-05-25T15:18:45.638Z,16.30
2023-05-25T15:21:12.638Z,16.50
2023-05-25T15:23:39.590Z,16.50
2023-05-25T15:26:08.262Z,16.40
2023-05-25T15:28:35.986Z,16.40
2023-05-25T15:31:03.548Z,16.70
2023-05-25T15:33:47.182Z,16.60
2023-05-25T15:36:18.662Z,16.30
2023-05-25T15:38:49.040Z,16.30
2023-05-25T15:41:17.517Z,16.30
2023-05-25T15:43:54.510Z,16.20
2023-05-25T15:46:21.754Z,16.20
2023-05-25T15:48:48.778Z,16.20
2023-05-25T15:51:15.957Z,16.00
2023-05-25T15:53:42.898Z,15.80
2023-05-25T15:56:10.069Z,15.70
2023-05-25T15:58:37.017Z,15.60
2023-05-25T16:01:04.429Z,15.60
2023-05-25T16:03:31.455Z,15.40
2023-05-25T16:05:58.509Z,15.30
2023-05-25T16:08:25.680Z,15.20
2023-05-25T16:10:52.649Z,15.20
2023-05-25T16:13:19.609Z,15.20
2023-05-25T16:15:46.799Z,15.30
2023-05-25T16:18:14.055Z,15.30
2023-05-25T16:20:41.234Z,15.30
2023-05-25T16:23:08.475Z,15.30
2023-05-25T16:25:35.748Z,15.40
2023-05-25T16:28:02.698Z,15.30
2023-05-25T16:30:29.712Z,15.30
2023-05-25T16:32:56.728Z,15.20
2023-05-25T16:35:23.692Z,15.10
2023-05-25T16:37:50.792Z,15.10
2023-05-25T16:40:17.764Z,15.10
2023-05-25T16:42:44.693Z,15.00
2023-05-25T16:45:11.704Z,15.00
2023-05-25T16:47:38.729Z,15.00
2023-05-25T16:50:06.537Z,14.90
2023-05-25T16:52:33.498Z,14.90
2023-05-25T16:55:00.568Z,14.90
2023-05-25T16:57:27.678Z,14.90
2023-05-25T16:59:54.658Z,14.90
2023-05-25T17:02:21.811Z,14.90
2023-05-25T17:04:48.924Z,14.80
2023-05-25T17:07:15.979Z,14.80
2023-05-25T17:09:42.914Z,14.70
2023-05-25T17:12:09.976Z,14.70
2023-05-25T17:14:37.173Z,14.70
2023-05-25T17:17:04.196Z,14.70
2023-05-25T17:19:31.215Z,14.70
2023-05-25T17:21:58.185Z,14.70
2023-05-25T17:24:25.532Z,14.70
2023-05-25T17:26:52.594Z,14.70
2023-05-25T17:29:19.715Z,14.70
2023-05-25T17:31:48.637Z,14.80
2023-05-25T17:34:16.734Z,14.70
2023-05-25T17:36:43.848Z,14.70
2023-05-25T17:39:10.900Z,14.70
2023-05-25T17:41:37.851Z,14.60
2023-05-25T17:44:04.775Z,14.50
2023-05-25T17:46:31.960Z,14.50
2023-05-25T17:48:58.994Z,14.50
2023-05-25T17:51:25.997Z,14.40
2023-05-25T17:53:52.978Z,14.30
2023-05-25T17:56:19.963Z,14.40
2023-05-25T17:58:47.719Z,14.30
2023-05-25T18:01:15.894Z,14.30
2023-05-25T18:03:43.194Z,14.20
2023-05-25T18:06:10.271Z,14.20
2023-05-25T18:08:37.293Z,14.20
2023-05-25T18:11:04.317Z,14.20
2023-05-25T18:13:31.289Z,14.20
2023-05-25T18:15:58.290Z,14.20
2023-05-25T18:18:25.526Z,14.10
2023-05-25T18:20:52.583Z,14.20
2023-05-25T18:23:19.602Z,14.10
2023-05-25T18:25:46.992Z,14.00
2023-05-25T18:28:15.210Z,13.90
2023-05-25T18:30:45.600Z,13.90
2023-05-25T18:33:12.821Z,13.90
2023-05-25T18:35:40.285Z,13.80
2023-05-25T18:38:07.334Z,13.80
2023-05-25T18:40:34.375Z,13.80
2023-05-25T18:43:01.375Z,13.70
2023-05-25T18:45:28.334Z,13.70
2023-05-25T18:47:55.449Z,13.70
2023-05-25T18:50:22.478Z,13.70
2023-05-25T18:52:51.426Z,13.60
2023-05-25T18:55:19.259Z,13.60
2023-05-25T18:57:46.905Z,13.60
2023-05-25T19:00:14.606Z,13.60
2023-05-25T19:02:41.780Z,13.50
2023-05-25T19:05:11.602Z,13.40
2023-05-25T19:07:51.059Z,13.30
2023-05-25T19:10:25.467Z,13.30
2023-05-25T19:12:52.610Z,13.30
2023-05-25T19:15:19.692Z,13.20
2023-05-25T19:17:49.522Z,13.20
2023-05-25T19:20:16.949Z,13.10
2023-05-25T19:22:44.249Z,13.00
2023-05-25T19:25:11.287Z,13.00
2023-05-25T19:27:38.289Z,13.00
2023-05-25T19:30:05.742Z,13.00
2023-05-25T19:32:32.850Z,12.90
2023-05-25T19:34:59.880Z,12.90
2023-05-25T19:37:26.962Z,12.90
2023-05-25T19:39:53.918Z,12.80
2023-05-25T19:42:20.875Z,12.90
2023-05-25T19:44:47.826Z,12.80
2023-05-25T19:47:14.832Z,12.80
2023-05-25T19:49:41.918Z,12.70
2023-05-25T19:52:09.000Z,12.70
2023-05-25T19:54:36.035Z,12.70
2023-05-25T19:57:03.136Z,12.60
2023-05-25T19:59:31.433Z,12.60
2023-05-25T20:01:58.649Z,12.60
2023-05-25T20:04:26.053Z,12.60
2023-05-25T20:06:54.138Z,12.60
2023-05-25T20:09:29.731Z,12.50
2023-05-25T20:11:58.285Z,12.50
2023-05-25T20:14:25.844Z,12.50
2023-05-25T20:16:55.332Z,12.40
2023-05-25T20:19:25.209Z,12.40
2023-05-25T20:21:52.350Z,12.40
2023-05-25T20:24:19.389Z,12.40
2023-05-25T20:26:46.352Z,12.40
2023-05-25T20:29:13.459Z,12.30
2023-05-25T20:31:40.706Z,12.30
2023-05-25T20:34:07.785Z,12.30
2023-05-25T20:36:34.748Z,12.20
2023-05-25T20:39:03.253Z,12.20
2023-05-25T20:41:30.459Z,12.20
2023-05-25T20:43:57.880Z,12.20
2023-05-25T20:46:24.984Z,12.10
2023-05-25T20:48:53.348Z,12.10
2023-05-25T20:51:21.808Z,12.20
2023-05-25T20:53:48.921Z,12.10
2023-05-25T20:56:16.190Z,12.10
2023-05-25T20:58:43.249Z,12.10
2023-05-25T21:01:10.325Z,12.10
2023-05-25T21:03:37.447Z,12.00
2023-05-25T21:06:04.650Z,12.00
2023-05-25T21:08:32.117Z,12.10
2023-05-25T21:10:59.238Z,12.00
2023-05-25T21:13:26.254Z,12.00
2023-05-25T21:15:53.241Z,12.00
2023-05-25T21:18:20.223Z,12.00
2023-05-25T21:20:47.193Z,12.00
2023-05-25T21:23:14.133Z,12.00
2023-05-25T21:25:41.109Z,12.00
2023-05-25T21:28:09.236Z,12.00
2023-05-25T21:30:36.247Z,12.00
2023-05-25T21:33:03.337Z,11.90
2023-05-25T21:35:30.410Z,11.90
2023-05-25T21:37:57.373Z,11.90
2023-05-25T21:40:24.346Z,11.90
2023-05-25T21:42:53.409Z,11.90
2023-05-25T21:45:20.706Z,11.80
2023-05-25T21:47:47.939Z,11.80
2023-05-25T21:50:15.175Z,11.80
2023-05-25T21:52:42.213Z,11.80
2023-05-25T21:55:09.533Z,11.70
2023-05-25T21:57:36.761Z,11.70
2023-05-25T22:00:06.465Z,11.60
2023-05-25T22:02:33.776Z,11.60
2023-05-25T22:05:00.903Z,11.50
2023-05-25T22:07:27.845Z,11.50
2023-05-25T22:09:54.799Z,11.50
2023-05-25T22:12:21.864Z,11.40
2023-05-25T22:14:48.883Z,11.40
2023-05-25T22:17:17.412Z,11.30
2023-05-25T22:19:47.061Z,11.40
2023-05-25T22:22:19.238Z,11.30
2023-05-25T22:24:46.186Z,11.30
2023-05-25T22:27:13.076Z,11.30
2023-05-25T22:29:40.052Z,11.30
2023-05-25T22:32:07.070Z,11.20
2023-05-25T22:34:34.050Z,11.20
2023-05-25T22:37:00.949Z,11.10
2023-05-25T22:39:27.923Z,11.10
2023-05-25T22:41:55.022Z,11.20
2023-05-25T22:44:21.980Z,11.20
2023-05-25T22:46:49.085Z,11.10
2023-05-25T22:49:16.370Z,11.10
2023-05-25T22:51:43.328Z,11.10
2023-05-25T22:54:10.269Z,11.20
2023-05-25T22:56:37.241Z,11.20
2023-05-25T22:59:04.229Z,11.10
2023-05-25T23:01:31.248Z,11.10
2023-05-25T23:03:59.765Z,11.10
2023-05-25T23:06:26.903Z,11.00
2023-05-25T23:08:53.988Z,11.00
2023-05-25T23:11:20.953Z,11.00
2023-05-25T23:13:47.862Z,11.00
2023-05-25T23:16:15.465Z,11.00
2023-05-25T23:18:42.865Z,11.00
2023-05-25T23:21:09.919Z,11.00
2023-05-25T23:23:36.896Z,11.10
2023-05-25T23:26:04.265Z,11.00
2023-05-25T23:28:31.366Z,11.00
2023-05-25T23:30:58.423Z,11.10
2023-05-25T23:33:25.377Z,11.00
2023-05-25T23:35:52.454Z,11.00
2023-05-25T23:38:19.418Z,11.00
2023-05-25T23:40:46.413Z,10.90
2023-05-25T23:43:13.398Z,10.90
2023-05-25T23:45:40.482Z,10.90
2023-05-25T23:48:07.553Z,10.90
2023-05-25T23:50:35.713Z,10.90
2023-05-25T23:53:02.680Z,10.80
2023-05-25T23:55:30.591Z,10.80
2023-05-25T23:57:57.535Z,10.80
